Latest Weather Observations for Hamilton

IDV60801

Issued at 5:05 pm EST Tuesday 22 July 2014 (issued every 30 minutes, with the page automatically refreshed every 10 minutes)

About weather observations | Map of weather stations | Latest weather observations for VIC | Other Formats
Station Details ID: 090173 Name: HAMILTON AIRPORT Lat: -37.65 Lon: 142.06 Height: 241.1 m
Data from the previous 72 hours. | See also: Recent months at Hamilton
Date/Time
EST
Temp
°C
App
Temp
°C
Dew
Point
Rel
Hum
%
Delta-T
°C
Wind Press
QNH
hPa
Press
MSL
hPa
Rain
since 9 am
mm
Dir
 
Spd
km/h
Gust
km/h
Spd
kts
Gust
kts
22/05:00pm 10.6 8.7 6.9 78 1.8 SE 6 7 3 4 1023.4 - 0.0
22/04:30pm 12.3 10.4 6.6 68 2.7 SW 6 7 3 4 1023.4 - 0.0
22/04:00pm 13.2 11.6 6.3 63 3.3 NW 4 6 2 3 1023.3 - 0.0
22/03:30pm 13.0 10.9 6.6 65 3.1 WSW 7 9 4 5 1023.4 - 0.0
22/03:00pm 13.1 11.0 6.5 64 3.2 NW 7 11 4 6 1023.5 1024.0 0.0
22/02:30pm 12.8 10.9 6.6 66 3.0 NW 6 7 3 4 1023.6 - 0.0
22/02:00pm 12.9 11.5 7.1 68 2.8 WNW 4 9 2 5 1023.6 - 0.0
22/01:30pm 12.5 10.6 6.5 67 2.9 S 6 9 3 5 1024.0 - 0.0
22/01:00pm 12.2 10.3 6.7 69 2.7 NW 6 9 3 5 1024.5 - 0.0
22/12:30pm 11.9 10.1 7.0 72 2.4 NNW 6 9 3 5 1025.0 - 0.0
22/12:00pm 10.7 8.4 7.4 80 1.6 N 9 11 5 6 1025.4 1025.9 0.0
22/11:30am 10.2 7.8 8.6 90 0.8 N 11 15 6 8 1025.9 - 0.0
22/11:00am 8.8 5.7 8.7 99 0.0 N 15 17 8 9 1026.2 - 0.0
22/10:30am 7.8 5.2 7.7 99 0.0 N 11 13 6 7 1026.4 - 0.0
22/10:12am 6.5 3.2 6.4 99 0.0 N 13 15 7 8 1026.4 - 0.0
22/10:00am 5.8 2.4 5.7 99 0.0 N 13 15 7 8 1026.3 - 0.0
22/09:54am 5.5 2.0 5.4 99 0.0 N 13 17 7 9 1026.2 - 0.0
22/09:32am 4.5 1.2 4.4 99 0.0 N 11 15 6 8 1026.2 - 0.0
22/09:30am 4.4 1.1 4.3 99 0.0 N 11 15 6 8 1026.2 - 0.0
22/09:28am 4.3 0.9 4.2 99 0.0 N 11 15 6 8 1026.2 - 0.0
22/09:15am 3.8 0.7 3.7 99 0.0 N 9 13 5 7 1026.1 - 0.0
22/09:00am 3.0 -0.6 2.9 99 0.0 N 11 13 6 7 1026.1 1026.6 0.2
22/08:30am 1.1 -2.8 1.0 99 0.0 N 11 13 6 7 1026.0 - 0.0
22/08:00am 0.1 -4.0 0.0 99 0.0 N 11 13 6 7 1025.7 - 0.0
22/07:30am -0.4 -4.5 -0.5 99 0.0 N 11 13 6 7 1025.5 - 0.0
22/07:00am 0.2 -3.9 0.1 99 0.0 N 11 13 6 7 1025.1 - 0.0
22/06:55am 0.1 -4.0 0.0 99 0.0 N 11 13 6 7 1025.0 - 0.0
22/06:50am 0.1 -4.0 0.0 99 0.0 N 11 13 6 7 1025.0 - 0.0
22/06:30am -1.0 -4.8 -1.1 99 0.0 N 9 9 5 5 1024.8 - 0.0
22/06:00am -0.2 -3.6 -0.3 99 0.0 N 7 9 4 5 1024.5 1025.0 0.0
22/05:30am -1.2 -4.7 -1.3 99 0.0 N 7 9 4 5 1024.6 - 0.0
22/05:00am -1.2 -5.5 -1.3 99 0.0 NNE 11 15 6 8 1024.3 - 0.0
22/04:41am -1.0 -4.8 -1.1 99 0.0 NNE 9 13 5 7 1024.3 - 0.0
22/04:30am -0.6 -4.0 -0.7 99 0.0 N 7 9 4 5 1024.3 - 0.0
22/04:00am -0.1 -3.3 -0.2 99 0.0 NNE 6 7 3 4 1023.9 - 0.0
22/03:30am -0.3 -3.7 -0.4 99 0.0 NNE 7 9 4 5 1024.2 - 0.0
22/03:16am -0.1 -4.2 -0.2 99 0.0 NNE 11 13 6 7 1024.3 - 0.0
22/03:11am 0.1 -4.0 0.0 99 0.0 NE 11 13 6 7 1024.3 - 0.0
22/03:00am 0.0 -4.5 -0.1 99 0.0 NE 13 15 7 8 1024.2 1024.7 0.0
22/02:30am 0.4 -4.0 0.3 99 0.0 NE 13 13 7 7 1024.3 - 0.0
22/02:00am 0.0 -4.5 -0.1 99 0.0 NE 13 15 7 8 1024.4 - 0.0
22/01:32am 0.4 -3.2 0.3 99 0.0 NNE 9 9 5 5 1024.4 - 0.0
22/01:30am 0.4 -3.2 0.3 99 0.0 NNE 9 9 5 5 1024.5 - 0.0
22/01:21am 1.4 -1.7 1.3 99 0.0 N 7 9 4 5 1024.6 - 0.0
22/01:00am 1.6 -1.3 1.5 99 0.0 N 6 7 3 4 1024.7 - 0.0
22/12:30am 1.1 -1.5 1.0 99 0.0 N 4 6 2 3 1024.8 - 0.0
22/12:00am 1.8 -1.2 1.7 99 0.0 N 7 9 4 5 1024.9 1025.4 0.0
 
Date/Time
EST
Temp
°C
App
Temp
°C
Dew
Point
Rel
Hum
%
Delta-T
°C
Wind Press
QNH
hPa
Press
MSL
hPa
Rain
since 9 am
mm
Dir
 
Spd
km/h
Gust
km/h
Spd
kts
Gust
kts
21/11:30pm 3.6 1.1 3.5 99 0.0 NNW 6 7 3 4 1024.8 - 0.0
21/11:00pm 3.3 1.5 3.2 99 0.0 W 2 6 1 3 1024.9 - 0.0
21/10:48pm 2.8 0.1 2.7 99 0.0 W 6 6 3 3 1024.8 - 0.0
21/10:30pm 3.6 0.9 3.5 99 0.0 N 7 9 4 5 1024.8 - 0.0
21/10:00pm 4.3 1.3 4.2 99 0.0 N 9 11 5 6 1024.6 - 0.0
21/09:30pm 4.3 1.3 4.2 99 0.0 N 9 11 5 6 1024.6 - 0.0
21/09:00pm 5.3 2.5 5.0 98 0.1 N 9 9 5 5 1024.6 1025.1 0.0
21/08:30pm 5.2 2.9 4.8 97 0.2 N 6 7 3 4 1024.7 - 0.0
21/08:00pm 6.4 4.1 5.8 96 0.3 N 7 9 4 5 1024.5 - 0.0
21/07:30pm 6.3 3.7 5.9 97 0.2 N 9 9 5 5 1024.4 - 0.0
21/07:00pm 5.8 3.1 5.5 98 0.1 NNE 9 13 5 7 1024.2 - 0.0
21/06:30pm 6.6 4.4 6.2 97 0.2 NE 7 9 4 5 1023.8 - 0.0
21/06:00pm 7.3 5.2 6.6 95 0.3 NE 7 9 4 5 1023.6 1024.1 0.0
21/05:30pm 8.5 7.5 7.3 92 0.6 NNW 2 6 1 3 1023.6 - 0.0
21/05:00pm 9.8 8.2 8.2 90 0.8 NW 6 7 3 4 1023.6 - 0.0
21/04:30pm 9.3 7.4 7.6 89 0.8 NNW 7 11 4 6 1023.4 - 0.0
21/04:00pm 10.3 8.2 8.4 88 0.9 NNW 9 13 5 7 1023.4 - 0.0
21/03:30pm 9.8 6.8 7.9 88 0.9 NW 13 17 7 9 1023.3 - 0.0
21/03:00pm 10.6 8.1 8.2 85 1.2 NNW 11 15 6 8 1023.2 1023.7 0.0
21/02:30pm 10.4 7.6 8.5 88 0.9 NNW 13 19 7 10 1023.2 - 0.0
21/02:00pm 9.9 6.6 8.2 89 0.8 NNW 15 17 8 9 1023.4 - 0.0
21/01:30pm 10.1 6.5 8.5 90 0.8 N 17 20 9 11 1023.7 - 0.0
21/01:00pm 9.8 6.1 8.1 89 0.8 N 17 22 9 12 1024.0 - 0.0
21/12:30pm 10.0 6.8 8.3 89 0.8 N 15 20 8 11 1024.6 - 0.0
21/12:00pm 10.0 7.3 8.9 93 0.5 NNW 13 22 7 12 1024.9 1025.4 0.0
21/11:30am 8.8 6.0 8.7 99 0.0 N 13 15 7 8 1025.2 - 0.0
21/11:00am 8.1 5.6 8.0 99 0.0 N 11 13 6 7 1025.4 - 0.0
21/10:30am 7.4 5.1 7.3 99 0.0 NE 9 11 5 6 1025.4 - 0.0
21/10:00am 6.2 4.0 6.1 99 0.0 NNE 7 9 4 5 1025.5 - 0.0
21/09:30am 4.8 1.9 4.7 99 0.0 NE 9 11 5 6 1025.3 - 0.0
21/09:00am 3.3 0.5 3.2 99 0.0 N 7 7 4 4 1025.3 1025.8 0.0
21/08:30am 2.3 -0.7 2.2 99 0.0 NE 7 7 4 4 1025.2 - 0.0
21/08:00am 1.8 -1.1 1.7 99 0.0 ENE 6 7 3 4 1024.9 - 0.0
21/07:30am 1.2 -2.3 1.1 99 0.0 ENE 9 9 5 5 1024.9 - 0.0
21/07:00am 1.8 -2.0 1.7 99 0.0 E 11 13 6 7 1024.6 - 0.0
21/06:30am 1.3 -2.2 1.2 99 0.0 ENE 9 11 5 6 1024.4 - 0.0
21/06:00am 1.7 -1.7 1.6 99 0.0 E 9 9 5 5 1024.5 1025.0 0.0
21/05:30am 1.2 -1.9 1.1 99 0.0 NE 7 9 4 5 1024.5 - 0.0
21/05:15am 1.8 -1.6 1.7 99 0.0 NE 9 13 5 7 1024.5 - 0.0
21/05:00am 1.6 -2.2 1.5 99 0.0 NE 11 11 6 6 1024.6 - 0.0
21/04:38am 0.2 -1.8 0.1 99 0.0 CALM 0 0 0 0 1024.5 - 0.0
21/04:30am 0.3 -2.0 0.2 99 0.0 NNE 2 6 1 3 1024.5 - 0.0
21/04:00am 0.3 -3.0 0.2 99 0.0 N 7 9 4 5 1024.8 - 0.0
21/03:30am 0.8 -1.8 0.7 99 0.0 NNE 4 9 2 5 1025.0 - 0.0
21/03:02am 2.0 0.3 1.9 99 0.0 CALM 0 0 0 0 1025.3 - 0.0
21/03:00am 2.4 0.8 2.3 99 0.0 CALM 0 0 0 0 1025.2 1025.7 0.0
21/02:30am 2.7 1.1 2.6 99 0.0 CALM 0 0 0 0 1025.3 - 0.0
21/02:00am 3.0 1.5 2.9 99 0.0 CALM 0 0 0 0 1025.3 - 0.0
21/01:30am 3.7 1.2 3.6 99 0.0 ENE 6 7 3 4 1025.4 - 0.0
21/01:00am 2.5 0.9 2.4 99 0.0 CALM 0 0 0 0 1025.5 - 0.0
21/12:34am 3.0 0.3 2.9 99 0.0 SE 6 7 3 4 1025.8 - 0.0
21/12:30am 2.4 -0.4 2.3 99 0.0 ESE 6 7 3 4 1025.8 - 0.0
21/12:20am 2.6 -0.3 2.5 99 0.0 ESE 7 9 4 5 1025.9 - 0.0
21/12:00am 2.8 -0.5 2.7 99 0.0 ESE 9 9 5 5 1025.9 1026.4 0.0
 
Date/Time
EST
Temp
°C
App
Temp
°C
Dew
Point
Rel
Hum
%
Delta-T
°C
Wind Press
QNH
hPa
Press
MSL
hPa
Rain
since 9 am
mm
Dir
 
Spd
km/h
Gust
km/h
Spd
kts
Gust
kts
20/11:30pm 2.6 -0.7 2.5 99 0.0 ESE 9 11 5 6 1026.0 - 0.0
20/11:00pm 2.5 -1.2 2.4 99 0.0 ESE 11 11 6 6 1026.1 - 0.0
20/10:53pm 2.6 -1.1 2.5 99 0.0 ESE 11 13 6 7 1026.1 - 0.0
20/10:30pm 3.1 -0.1 3.0 99 0.0 ESE 9 15 5 8 1026.0 - 0.0
20/10:00pm 5.2 4.1 5.1 99 0.0 CALM 0 0 0 0 1026.2 - 0.0
20/09:30pm 4.8 3.6 4.7 99 0.0 CALM 0 0 0 0 1026.4 - 0.0
20/09:00pm 5.0 2.5 4.9 99 0.0 NNE 7 9 4 5 1026.5 1027.0 0.0
20/08:30pm 5.5 3.1 5.2 98 0.1 NNE 7 9 4 5 1026.5 - 0.0
20/08:00pm 6.2 3.4 5.3 94 0.4 NE 9 9 5 5 1026.3 - 0.0
20/07:30pm 7.7 5.3 6.8 94 0.4 NE 9 9 5 5 1026.3 - 0.0
20/07:00pm 7.0 4.4 5.9 93 0.5 ENE 9 11 5 6 1026.2 - 0.0
20/06:30pm 8.0 6.0 7.1 94 0.4 ENE 7 11 4 6 1026.2 - 0.0
20/06:00pm 8.8 6.5 7.4 91 0.7 ENE 9 11 5 6 1026.1 1026.6 0.0
20/05:30pm 8.7 6.6 6.8 88 0.9 ENE 7 9 4 5 1026.1 - 0.0
20/05:00pm 9.6 7.8 7.9 89 0.8 ENE 7 9 4 5 1026.1 - 0.0
20/04:30pm 9.9 8.0 7.7 86 1.1 NNE 7 9 4 5 1026.1 - 0.0
20/04:00pm 9.8 7.5 7.6 86 1.1 NE 9 13 5 7 1026.1 - 0.0
20/03:30pm 10.0 8.2 7.8 86 1.1 NE 7 9 4 5 1026.2 - 0.0
20/03:00pm 9.7 7.8 7.5 86 1.1 ENE 7 9 4 5 1026.3 1026.8 0.0
20/02:30pm 10.1 8.4 8.2 88 0.9 NNE 7 11 4 6 1026.4 - 0.0
20/02:00pm 10.0 8.2 7.9 87 1.0 NNE 7 11 4 6 1026.7 - 0.0
20/01:30pm 9.9 8.3 8.0 88 0.9 SSE 6 9 3 5 1027.1 - 0.0
20/01:00pm 9.7 6.7 7.8 88 0.9 NNE 13 17 7 9 1027.6 - 0.0
20/12:30pm 9.8 7.7 8.1 89 0.8 E 9 11 5 6 1028.0 - 0.0
20/12:00pm 9.8 8.0 7.9 88 0.9 E 7 11 4 6 1028.3 1028.9 0.0
20/11:30am 10.3 8.3 8.6 89 0.8 E 9 15 5 8 1028.7 - 0.0
20/11:00am 9.5 7.4 8.4 93 0.5 E 9 15 5 8 1028.9 - 0.0
20/10:30am 9.0 7.6 8.9 99 0.0 NE 6 11 3 6 1029.2 - 0.0
20/10:00am 8.4 6.7 8.3 99 0.0 ENE 7 9 4 5 1029.2 - 0.0
20/09:30am 7.4 6.4 7.3 99 0.0 NE 2 6 1 3 1029.0 - 0.0
20/09:00am 6.4 4.8 6.3 99 0.0 N 4 7 2 4 1029.0 1029.5 0.0
20/08:30am 5.3 4.2 5.2 99 0.0 CALM 0 0 0 0 1028.8 - 0.0
20/08:00am 4.5 2.9 4.4 99 0.0 N 2 7 1 4 1028.6 - 0.0
20/07:30am 4.0 1.9 3.9 99 0.0 S 4 7 2 4 1028.2 - 0.0
20/07:00am 4.9 2.6 4.8 99 0.0 ENE 6 11 3 6 1028.0 - 0.0
20/06:30am 4.9 2.4 4.8 99 0.0 ENE 7 9 4 5 1027.8 - 0.0
20/06:00am 4.4 1.4 4.3 99 0.0 E 9 11 5 6 1027.7 1028.3 0.0
20/05:30am 5.3 3.1 5.2 99 0.0 ENE 6 7 3 4 1027.7 - 0.0
20/05:00am 5.5 4.5 5.4 99 0.0 CALM 0 0 0 0 1027.9 - 0.0
20/04:53am 5.4 4.3 5.3 99 0.0 CALM 0 0 0 0 1027.9 - 0.0
20/04:30am 4.7 3.5 4.6 99 0.0 CALM 0 0 0 0 1028.0 - 0.0
20/04:00am 5.6 4.6 5.5 99 0.0 CALM 0 0 0 0 1027.9 - 0.0
20/03:30am 5.5 4.5 5.4 99 0.0 CALM 0 0 0 0 1028.0 - 0.0
20/03:11am 5.9 4.9 5.8 99 0.0 CALM 0 0 0 0 1028.2 - 0.0
20/03:00am 6.2 5.3 6.1 99 0.0 CALM 0 0 0 0 1028.2 1028.8 0.0
20/02:30am 6.8 6.0 6.7 99 0.0 CALM 0 0 0 0 1028.3 - 0.0
20/02:00am 7.0 6.3 6.9 99 0.0 CALM 0 4 0 2 1028.5 - 0.0
20/01:30am 7.0 5.0 6.9 99 0.0 S 7 9 4 5 1028.7 - 0.0
20/01:00am 7.0 5.0 6.9 99 0.0 SSW 7 9 4 5 1028.9 - 0.0
20/12:30am 7.1 5.1 7.0 99 0.0 SSE 7 9 4 5 1029.2 - 0.0
20/12:00am 7.2 5.2 7.1 99 0.0 SSW 7 9 4 5 1029.5 1030.0 0.0
 
Date/Time
EST
Temp
°C
App
Temp
°C
Dew
Point
Rel
Hum
%
Delta-T
°C
Wind Press
QNH
hPa
Press
MSL
hPa
Rain
since 9 am
mm
Dir
 
Spd
km/h
Gust
km/h
Spd
kts
Gust
kts
19/11:30pm 7.0 5.1 6.9 99 0.0 S 6 7 3 4 1029.7 - 0.0
19/11:00pm 6.7 4.6 6.6 99 0.0 S 7 7 4 4 1029.9 - 0.0
19/10:30pm 7.2 5.2 7.1 99 0.0 SW 7 9 4 5 1029.9 - 0.0
19/10:00pm 8.0 6.2 7.9 99 0.0 SSW 7 9 4 5 1030.1 - 0.0
19/09:30pm 8.3 6.6 8.2 99 0.0 SSW 7 9 4 5 1030.3 - 0.0
19/09:00pm 8.3 6.6 8.2 99 0.0 SW 7 9 4 5 1030.4 1030.9 0.0
19/08:30pm 8.4 6.7 8.3 99 0.0 SW 7 9 4 5 1030.3 - 0.0
19/08:00pm 8.6 6.5 8.2 97 0.2 SSW 9 9 5 5 1030.3 - 0.0
19/07:30pm 8.6 6.3 7.4 92 0.6 S 9 13 5 7 1030.4 - 0.0
19/07:00pm 8.8 8.1 7.1 89 0.8 CALM 0 0 0 0 1030.3 - 0.0
19/06:30pm 8.9 6.8 6.7 86 1.0 SSW 7 11 4 6 1030.0 - 0.0
19/06:00pm 9.2 7.8 7.2 87 0.9 NE 4 9 2 5 1030.0 1030.5 0.0
19/05:30pm 9.2 8.1 6.8 85 1.1 WSW 2 6 1 3 1030.1 - 0.0

Other Formats:

Comma delimited format used in spreadsheet applications
http://www.bom.gov.au/fwo/IDV60801/IDV60801.94829.axf

JavaScript Object Notation format (JSON) in row-major order
http://www.bom.gov.au/fwo/IDV60801/IDV60801.94829.json